Wednesday, November 26, 2014
20:21 UTC
  |  Log In   |  Register Free
Airport Search:

Heart Of Georgia Regional Airport
(KEZM)

FAA data valid effective November 13, 2014 - January 08, 2015 (unless otherwise noted).

 
 
 
 
 
 
 
 
 
 
 
 
 
 

Current Aviation Weather for Heart Of Georgia Regional Airport (KEZM)

The most recent METAR observation for KEZM was updated at: 2016
METAR Summary (Translated METAR)
KEZM
261955Z AUTO 29008KT 10SM CLR 16/00 A3012 RMK AO2 T01570000
KDBN
261955Z AUTO 29006KT 10SM CLR 15/00 A3009 RMK AO2
(22.1 nm NE from KEZM)
KAZE
261955Z AUTO 29004KT 10SM CLR 17/02 A3008 RMK AO2 T01660022
(31.6 nm SE from KEZM)
TAF
No TAF information found within 50 nm of KEZM
  Airport Weather Conditions for KEZM

 Current Weather at EZM
60° F
Fair
Northwest winds at 10.4 mph
EZM NOAA Radar

Pressure: 30.11 in
Humidity: 34%
Wind: Northwest at 10.4 MPH (9 KT)
Dew Point: 32.0°F
Visibility: 10.00 mi


Airport Weather Forecast for KEZM

Translated METAR and TAF for KEZM
Translated METAR for KEZM (2016 UTC 26 November 2014)
found at http://aviationweather.gov/adds/metars/
 
METAR text: KEZM 261955Z AUTO 29008KT 10SM CLR 16/00 A3012 RMK AO2 T01570000
Conditions at: KEZM (EASTMAN , GA, US) observed 1955 UTC 26 November 2014
Temperature: 15.7°C (60°F)
Dewpoint: 0.0°C (32°F) [RH = 34%]
Pressure (altimeter): 30.12 inches Hg (1020.1 mb)
Winds: from the WNW (290 degrees) at 9 MPH (8 knots; 4.2 m/s)
Visibility: 10 or more miles (16+ km)
Ceiling: at least 12,000 feet AGL
Clouds: sky clear below 12,000 feet AGL
Weather: automated observation with no human augmentation;
there may or may not be significant weather present at this time
Translated TAF for KEZM

There is no translated TAF available for this airport

Find All Airport Services Find A Hotel Find A Rental Car Find A Golf Course Find A Restaurant $100 Hamburger



FBO's on the Field
FBO Company Facility Photos Services Transportation Aviation Fuel Prices: Prices include tax
Catering Weather Repair Courtesy Rental Type 100LL JetA JetA+ MOGAS 8087
 
Heart of Georgia Regional Airport

This FBO has not yet been rated
FS:Phillips 66
Last Updated: Nov-25
Login to update fuel prices
SS:
Contact Heart of Georgia Regional AirportMore FBO Information
 
Add another FBO Facility Photos Catering Weather Repair Courtesy Rental Type 100LL JetA JetA+ MOGAS 8087
Services Transportation Aviation Fuel Prices: Prices include tax


model-print
model-print
model-print
model-print